Time;durP1;ratioP1;P1;durP2;ratioP2;P2;SDS_P1;SDS_P2;PMS_P1;PMS_P2;Temp;Humidity;BMP_temperature;BMP_pressure;BME280_temperature;BME280_humidity;BME280_pressure;Samples;Min_cycle;Max_cycle;Signal;HPM_P1;HPM_P2
2022/10/30 00:04:31;;;;;;;37.50;27.90;;;;;;;12.11;95.75;99865.54;419412;1275;144209;-66
2022/10/30 00:14:37;;;;;;;34.90;27.40;;;;;;;12.07;95.90;99856.18;419280;1281;142689;-66
2022/10/30 00:24:42;;;;;;;34.40;28.60;;;;;;;12.06;96.05;99856.58;423361;1278;143343;-66
2022/10/30 00:34:48;;;;;;;43.90;31.50;;;;;;;12.07;96.17;99849.16;420791;1282;143541;-66
2022/10/30 00:44:54;;;;;;;36.50;29.40;;;;;;;12.09;96.48;99854.30;419746;1281;144006;-66
2022/10/30 00:55:03;;;;;;;34.50;29.40;;;;;;;12.02;96.37;99860.48;421058;1281;143487;-65
2022/10/30 01:05:10;;;;;;;35.00;27.10;;;;;;;12.05;96.58;99874.89;420147;1275;145564;-65
2022/10/30 01:15:17;;;;;;;32.70;27.00;;;;;;;12.07;96.76;99863.70;419679;1281;143381;-65
2022/10/30 01:25:37;;;;;;;36.40;24.80;;;;;;;12.02;96.74;99866.29;420128;1281;143426;-66
2022/10/30 01:35:48;;;;;;;30.50;25.00;;;;;;;12.08;97.15;99863.84;419426;1280;143371;-66
2022/10/30 01:46:14;;;;;;;30.40;25.00;;;;;;;12.05;96.98;99855.27;421491;1280;146135;-67
2022/10/30 01:56:36;;;;;;;32.50;23.70;;;;;;;11.98;97.04;99846.71;421394;1282;143683;-67
2022/10/30 02:06:42;;;;;;;29.50;26.30;;;;;;;11.95;97.36;99848.31;435855;1282;213288;-66
2022/10/30 02:16:52;;;;;;;31.90;25.20;;;;;;;11.99;97.60;99840.53;436301;1288;143882;-67
2022/10/30 02:26:58;;;;;;;33.00;24.20;;;;;;;11.98;97.71;99843.70;435439;1274;144404;-67
2022/10/30 02:37:04;;;;;;;30.90;24.40;;;;;;;12.03;97.78;99834.44;436112;1289;144178;-67
2022/10/30 02:47:10;;;;;;;26.80;22.90;;;;;;;12.00;97.96;99834.83;436221;1268;143845;-67
2022/10/30 02:57:15;;;;;;;27.20;21.00;;;;;;;12.02;98.35;99833.09;434294;1283;144265;-67
2022/10/30 03:07:21;;;;;;;29.30;23.60;;;;;;;12.13;98.36;99824.33;436104;1282;143891;-67
2022/10/30 03:17:27;;;;;;;26.20;21.30;;;;;;;12.21;98.43;99826.97;435412;1282;142993;-66
2022/10/30 03:27:32;;;;;;;31.50;24.10;;;;;;;12.22;98.28;99824.45;436087;1282;142661;-67
2022/10/30 03:37:38;;;;;;;29.20;21.50;;;;;;;12.18;98.36;99837.02;436105;1280;143614;-66
2022/10/30 03:47:44;;;;;;;25.60;22.70;;;;;;;12.18;98.52;99841.91;435261;1277;144545;-67
2022/10/30 03:57:49;;;;;;;25.30;20.60;;;;;;;12.27;98.65;99865.38;426964;1278;146307;-65
2022/10/30 04:07:59;;;;;;;25.40;20.00;;;;;;;12.29;98.63;99888.05;433339;1284;143291;-66
2022/10/30 04:18:05;;;;;;;25.50;20.20;;;;;;;12.20;98.34;99865.12;428123;1273;142470;-65
2022/10/30 04:28:11;;;;;;;25.60;20.50;;;;;;;12.16;98.69;99855.04;420078;1283;142138;-65
2022/10/30 04:38:18;;;;;;;23.70;20.40;;;;;;;12.08;98.80;99857.98;421388;1283;144057;-66
2022/10/30 04:48:24;;;;;;;26.20;20.70;;;;;;;12.03;99.16;99865.88;420522;1275;143989;-67
2022/10/30 04:58:30;;;;;;;26.80;21.20;;;;;;;12.02;99.31;99857.35;419699;1281;142201;-66
2022/10/30 05:08:35;;;;;;;26.10;20.30;;;;;;;11.91;99.05;99819.27;419414;1275;146370;-66
2022/10/30 05:18:41;;;;;;;27.90;22.80;;;;;;;11.71;99.20;99827.59;420809;1275;142304;-68
2022/10/30 05:28:47;;;;;;;24.90;21.60;;;;;;;11.58;99.70;99833.30;420613;1274;142635;-67
2022/10/30 05:38:53;;;;;;;28.00;21.60;;;;;;;11.51;99.72;99827.80;422735;1275;143146;-68
2022/10/30 05:48:59;;;;;;;25.20;22.30;;;;;;;11.39;99.76;99841.55;436122;1283;143109;-66
2022/10/30 05:59:05;;;;;;;26.60;21.90;;;;;;;11.39;99.77;99833.86;436018;1275;143068;-67
2022/10/30 06:09:10;;;;;;;28.30;22.30;;;;;;;11.46;100.00;99841.11;435519;1267;143118;-67
2022/10/30 06:19:16;;;;;;;23.30;20.60;;;;;;;11.54;99.95;99874.09;436177;1283;143281;-67
2022/10/30 06:29:23;;;;;;;29.70;22.40;;;;;;;11.81;100.00;99868.48;436129;1283;142479;-67
2022/10/30 06:39:29;;;;;;;24.40;20.30;;;;;;;12.28;100.00;99872.30;429785;1275;212965;-67
2022/10/30 06:49:35;;;;;;;29.80;23.80;;;;;;;12.53;99.48;99861.52;423024;1282;142558;-68
2022/10/30 06:59:40;;;;;;;25.20;20.40;;;;;;;12.62;99.32;99885.16;435199;1283;146541;-66
2022/10/30 07:09:46;;;;;;;30.50;22.60;;;;;;;12.71;99.22;99888.63;435950;1283;142433;-66
2022/10/30 07:19:52;;;;;;;28.80;23.30;;;;;;;12.90;99.15;99883.77;435932;1277;143528;-66
2022/10/30 07:29:58;;;;;;;26.90;23.50;;;;;;;13.11;99.01;99883.23;435182;1283;198119;-68
2022/10/30 07:40:04;;;;;;;27.20;20.70;;;;;;;13.25;98.51;99905.81;430626;1285;143675;-66
2022/10/30 07:50:17;;;;;;;22.40;20.00;;;;;;;13.36;98.00;99913.33;433638;1287;143280;-66
2022/10/30 08:00:23;;;;;;;25.10;17.90;;;;;;;13.58;97.26;99901.61;420186;1275;143347;-67
2022/10/30 08:10:28;;;;;;;21.80;17.10;;;;;;;13.80;96.61;99875.40;420192;1274;142405;-67
2022/10/30 08:20:34;;;;;;;20.30;18.10;;;;;;;14.01;95.57;99874.59;420984;1274;144840;-67
2022/10/30 08:30:41;;;;;;;24.50;17.80;;;;;;;14.23;95.29;99901.30;420025;1274;146862;-67
2022/10/30 08:40:47;;;;;;;24.30;18.40;;;;;;;14.47;94.61;99905.37;419505;1281;145999;-67
2022/10/30 08:50:53;;;;;;;23.50;18.00;;;;;;;14.70;93.59;99907.36;419217;1275;144365;-67
2022/10/30 09:00:59;;;;;;;20.00;16.70;;;;;;;14.93;93.14;99902.45;422290;1275;143209;-67
2022/10/30 09:11:07;;;;;;;22.30;18.20;;;;;;;15.07;92.16;99904.19;420764;1267;145664;-67
2022/10/30 09:21:12;;;;;;;22.40;17.90;;;;;;;15.14;91.95;99902.23;420483;1283;146761;-67
2022/10/30 09:31:18;;;;;;;24.70;19.10;;;;;;;15.57;91.37;99899.95;420017;1277;142767;-67
2022/10/30 09:41:39;;;;;;;23.40;19.00;;;;;;;15.81;90.29;99896.10;419846;1278;142808;-68
2022/10/30 09:52:13;;;;;;;22.60;20.10;;;;;;;16.06;89.93;99899.91;421562;1282;208596;-66
2022/10/30 10:02:32;;;;;;;22.30;18.00;;;;;;;16.28;89.06;99903.05;420048;1275;144021;-68
2022/10/30 10:12:44;;;;;;;25.60;20.60;;;;;;;16.39;88.25;99908.67;431760;1282;144376;-67
2022/10/30 10:22:51;;;;;;;22.50;18.30;;;;;;;16.53;87.85;99906.11;420720;1282;142512;-65
2022/10/30 10:33:17;;;;;;;29.00;20.00;;;;;;;16.97;87.10;99891.98;421476;1281;142590;-66
2022/10/30 10:43:35;;;;;;;25.10;18.50;;;;;;;17.24;86.20;99889.56;421342;1275;143969;-67
2022/10/30 10:53:42;;;;;;;;;;;;;;;17.23;85.51;99886.08;420098;1281;142518;-66
2022/10/30 11:03:55;;;;;;;21.20;15.50;;;;;;;17.19;84.81;99877.77;422299;1275;127904;-67
2022/10/30 11:14:01;;;;;;;17.60;13.80;;;;;;;17.12;84.35;99865.60;421741;1277;146241;-66
2022/10/30 11:24:27;;;;;;;15.80;13.50;;;;;;;17.16;83.87;99854.67;419537;1282;143768;-68
2022/10/30 11:34:35;;;;;;;16.80;13.50;;;;;;;17.30;83.75;99852.39;420990;1281;142932;-66
2022/10/30 11:44:44;;;;;;;17.90;15.20;;;;;;;17.64;83.20;99846.41;421954;1281;143435;-67
2022/10/30 11:54:53;;;;;;;20.30;14.40;;;;;;;17.69;82.84;99836.52;421261;1281;142594;-66
2022/10/30 12:05:02;;;;;;;18.40;13.50;;;;;;;17.77;82.49;99831.93;420619;1278;143391;-66
2022/10/30 12:15:20;;;;;;;22.90;14.30;;;;;;;17.81;82.06;99832.83;420509;1275;144289;-67
2022/10/30 12:25:29;;;;;;;18.00;12.90;;;;;;;18.21;81.79;99829.39;420665;1275;152736;-67
2022/10/30 12:35:44;;;;;;;16.50;13.50;;;;;;;18.35;80.59;99822.30;419704;1282;144428;-68
2022/10/30 12:45:54;;;;;;;17.10;13.20;;;;;;;18.14;80.07;99820.79;419456;1280;142842;-67
2022/10/30 12:56:05;;;;;;;17.60;13.80;;;;;;;17.89;80.23;99822.24;421239;1275;142873;-67
2022/10/30 13:06:16;;;;;;;27.40;14.50;;;;;;;17.72;80.39;99809.55;419439;1281;156508;-67
2022/10/30 13:16:26;;;;;;;19.60;14.20;;;;;;;17.54;80.42;99802.10;420522;1278;143456;-65
2022/10/30 13:26:38;;;;;;;16.70;13.10;;;;;;;17.39;80.67;99784.55;419295;1274;143010;-67
2022/10/30 13:36:49;;;;;;;21.40;13.80;;;;;;;17.32;80.77;99783.16;422192;1282;143876;-67
2022/10/30 13:47:08;;;;;;;19.50;15.80;;;;;;;17.36;80.88;99788.40;420578;1282;147764;-66
2022/10/30 13:57:20;;;;;;;20.40;15.50;;;;;;;17.38;80.90;99776.11;419934;1280;145070;-66
2022/10/30 14:07:36;;;;;;;19.40;14.80;;;;;;;17.35;81.18;99768.48;428280;1285;142698;-66
2022/10/30 14:18:19;;;;;;;20.70;16.00;;;;;;;17.19;81.06;99778.88;435054;1283;143171;-66
2022/10/30 14:28:25;;;;;;;28.40;17.30;;;;;;;17.14;81.16;99786.07;435868;1276;144519;-66
2022/10/30 14:38:35;;;;;;;18.80;15.60;;;;;;;16.96;81.52;99769.16;435225;1284;144776;-65
2022/10/30 14:48:52;;;;;;;21.70;14.50;;;;;;;16.64;81.97;99769.80;425964;1280;142193;-66
2022/10/30 14:59:20;;;;;;;20.20;15.50;;;;;;;16.37;82.59;99755.71;435986;1288;142836;-67
2022/10/30 15:09:39;;;;;;;18.60;14.50;;;;;;;15.96;83.22;99755.07;427364;1281;142388;-67
2022/10/30 15:19:45;;;;;;;24.60;16.90;;;;;;;15.48;84.10;99763.56;435979;1290;143201;-66
2022/10/30 15:29:53;;;;;;;19.80;15.70;;;;;;;15.16;84.89;99773.71;435234;1284;143588;-67
2022/10/30 15:40:22;;;;;;;18.70;14.90;;;;;;;14.82;85.44;99775.02;428329;1278;143140;-66
2022/10/30 15:50:28;;;;;;;23.00;17.10;;;;;;;14.34;86.23;99774.94;435182;1285;143361;-66
2022/10/30 16:00:37;;;;;;;24.60;17.50;;;;;;;13.98;87.11;99777.10;428061;1281;142434;-66
2022/10/30 16:10:45;;;;;;;29.30;20.90;;;;;;;13.66;87.37;99779.17;421289;1281;144007;-65
2022/10/30 16:20:52;;;;;;;51.70;36.90;;;;;;;13.38;88.03;99773.45;418916;1281;144758;-66
2022/10/30 16:31:02;;;;;;;35.70;26.90;;;;;;;13.26;89.46;99778.83;421029;1281;142198;-67
2022/10/30 16:41:12;;;;;;;58.60;43.20;;;;;;;13.24;90.44;99782.52;420860;1292;146124;-66
2022/10/30 16:51:20;;;;;;;50.40;37.70;;;;;;;13.03;90.32;99786.83;419359;1283;144954;-68
2022/10/30 17:01:28;;;;;;;66.50;44.00;;;;;;;12.73;90.22;99779.02;419878;1275;142088;-66
2022/10/30 17:11:40;;;;;;;60.10;40.00;;;;;;;12.38;90.10;99778.96;419015;1280;197514;-66
2022/10/30 17:21:46;;;;;;;57.60;34.20;;;;;;;12.03;90.42;99776.21;419713;1280;143061;-67
2022/10/30 17:31:58;;;;;;;50.50;35.00;;;;;;;11.75;91.12;99773.46;419863;1281;142653;-67
2022/10/30 17:42:04;;;;;;;42.00;29.90;;;;;;;11.50;91.26;99787.19;418962;1281;144325;-67
2022/10/30 17:52:13;;;;;;;51.00;34.30;;;;;;;11.26;91.52;99790.12;420121;1281;143421;-65
2022/10/30 18:02:21;;;;;;;41.40;29.00;;;;;;;11.05;91.77;99790.73;419830;1281;149053;-65
2022/10/30 18:12:27;;;;;;;41.50;31.10;;;;;;;10.80;91.50;99784.74;419846;1280;212135;-66
2022/10/30 18:22:33;;;;;;;37.90;29.30;;;;;;;10.55;91.03;99778.17;419631;1275;145860;-65
2022/10/30 18:32:39;;;;;;;48.10;28.60;;;;;;;10.34;91.38;99773.13;420710;1281;142803;-65
2022/10/30 18:42:44;;;;;;;43.40;29.30;;;;;;;10.11;91.62;99773.25;420802;1281;143909;-65
2022/10/30 18:52:51;;;;;;;53.90;42.80;;;;;;;9.92;92.02;99775.91;420822;1281;143805;-65
2022/10/30 19:02:58;;;;;;;66.80;55.10;;;;;;;10.04;94.49;99773.63;420750;1283;145611;-66
2022/10/30 19:13:11;;;;;;;64.60;49.20;;;;;;;10.19;95.66;99766.52;420292;1276;143226;-65
2022/10/30 19:23:20;;;;;;;66.10;44.70;;;;;;;10.02;95.52;99763.30;419667;1280;143006;-66
2022/10/30 19:33:27;;;;;;;53.90;39.80;;;;;;;9.88;95.85;99759.37;419699;1278;141439;-66
2022/10/30 19:43:32;;;;;;;56.60;38.40;;;;;;;9.71;95.28;99766.50;419438;1284;153066;-65
2022/10/30 19:53:38;;;;;;;58.10;42.90;;;;;;;9.43;94.44;99772.41;419448;1278;142134;-65
2022/10/30 20:03:44;;;;;;;66.80;51.60;;;;;;;9.28;95.11;99766.63;423514;1281;143132;-66
2022/10/30 20:13:50;;;;;;;68.40;55.80;;;;;;;9.56;97.51;99762.60;421885;1277;141797;-65
2022/10/30 20:23:59;;;;;;;67.20;55.80;;;;;;;9.74;98.40;99770.70;420741;1283;142694;-65
2022/10/30 20:34:05;;;;;;;58.80;45.70;;;;;;;9.84;98.76;99777.94;420482;1277;143178;-65
2022/10/30 20:44:13;;;;;;;62.00;48.20;;;;;;;9.43;97.40;99782.75;419969;1281;142990;-66
2022/10/30 20:54:19;;;;;;;50.40;41.10;;;;;;;9.03;96.45;99778.27;420297;1275;144221;-64
2022/10/30 21:04:25;;;;;;;64.80;43.30;;;;;;;8.75;95.75;99789.55;419623;1274;143325;-66
2022/10/30 21:14:31;;;;;;;67.10;46.30;;;;;;;8.60;96.01;99784.23;419569;1274;145455;-66
2022/10/30 21:24:36;;;;;;;49.30;43.30;;;;;;;8.66;97.16;99773.10;419903;1276;141821;-65
2022/10/30 21:34:42;;;;;;;50.30;42.90;;;;;;;8.61;97.02;99768.13;419852;1278;145270;-66
2022/10/30 21:44:48;;;;;;;55.30;45.30;;;;;;;8.47;96.51;99768.48;419648;1275;142993;-66
2022/10/30 21:54:54;;;;;;;50.20;41.20;;;;;;;8.29;95.83;99764.15;419638;1280;199251;-66
2022/10/30 22:04:59;;;;;;;64.00;45.30;;;;;;;8.13;95.57;99756.05;420627;1277;143592;-65
2022/10/30 22:15:07;;;;;;;55.00;43.90;;;;;;;8.02;95.21;99749.69;418824;1277;142872;-66
2022/10/30 22:25:13;;;;;;;59.30;43.20;;;;;;;7.88;94.88;99754.52;420741;1280;141178;-66
2022/10/30 22:35:19;;;;;;;54.70;44.90;;;;;;;7.78;94.96;99762.00;420585;1283;147630;-66
2022/10/30 22:45:25;;;;;;;57.70;46.30;;;;;;;7.76;95.52;99762.63;421350;1275;145592;-66
2022/10/30 22:55:30;;;;;;;55.40;43.00;;;;;;;7.70;95.45;99760.48;420864;1281;142932;-65
2022/10/30 23:05:36;;;;;;;56.50;39.30;;;;;;;7.66;95.73;99761.20;419051;1283;144727;-66
2022/10/30 23:15:41;;;;;;;58.10;46.80;;;;;;;7.58;95.64;99766.27;420669;1275;144534;-65
2022/10/30 23:25:47;;;;;;;59.30;45.60;;;;;;;7.46;95.23;99757.77;420433;1283;143051;-66
2022/10/30 23:35:59;;;;;;;51.50;43.00;;;;;;;7.34;95.15;99760.47;420346;1278;142717;-66
2022/10/30 23:46:05;;;;;;;57.80;45.80;;;;;;;7.25;95.43;99759.49;420528;1281;141062;-65
2022/10/30 23:56:11;;;;;;;54.90;44.90;;;;;;;7.17;95.38;99751.52;419608;1277;142247;-66
